Peck, Michigan
Current Conditions -  °F | °C
As of 11:33 PM on Thursday 27 Nov 2014 (Local Time) from KD95 Reporting Station
Light Snow Light Snow  
Wind Chill: 12°   Ceiling: 3100
Heat Index: 21°   Visibility: 10mi
Dew Point: 10°   Wind: 8mph
Humidity: 63%   Direction: 330°NNW
Pressure: 30.29"   Gusts: NA
Location:  43.26°N, 82.82°W
Report Text: KD95 280433Z AUTO 33007KT 10SM -SN BKN031 OVC036 M06/M12 A3029 RMK AO2 T10601120
Loading
Personal Weather Stations






























Interactive Weather Map New forecast layout! Learn more

10-Day Weather Forecast

Advertisements
Track Severe Weather on mobile